sensor_id;sensor_type;location;lat;lon;timestamp;P1;durP1;ratioP1;P2;durP2;ratioP2
13731;SDS011;6937;56.096;12.664;2022-11-25T00:00:06;40.20;;;24.00;;
13731;SDS011;6937;56.096;12.664;2022-11-25T00:02:32;46.20;;;24.55;;
13731;SDS011;6937;56.096;12.664;2022-11-25T00:04:57;45.47;;;25.70;;
13731;SDS011;6937;56.096;12.664;2022-11-25T00:07:23;52.10;;;28.85;;
13731;SDS011;6937;56.096;12.664;2022-11-25T00:09:48;51.95;;;30.70;;
13731;SDS011;6937;56.096;12.664;2022-11-25T00:12:13;52.75;;;30.77;;
13731;SDS011;6937;56.096;12.664;2022-11-25T00:14:39;57.63;;;33.22;;
13731;SDS011;6937;56.096;12.664;2022-11-25T00:17:04;56.40;;;30.55;;
13731;SDS011;6937;56.096;12.664;2022-11-25T00:19:29;54.65;;;28.58;;
13731;SDS011;6937;56.096;12.664;2022-11-25T00:21:55;57.42;;;27.42;;
13731;SDS011;6937;56.096;12.664;2022-11-25T00:24:20;56.15;;;27.75;;
13731;SDS011;6937;56.096;12.664;2022-11-25T00:26:45;62.75;;;29.00;;
13731;SDS011;6937;56.096;12.664;2022-11-25T00:29:11;63.00;;;32.45;;
13731;SDS011;6937;56.096;12.664;2022-11-25T00:31:38;55.78;;;28.65;;
13731;SDS011;6937;56.096;12.664;2022-11-25T00:34:04;60.03;;;28.58;;
13731;SDS011;6937;56.096;12.664;2022-11-25T00:36:32;60.28;;;30.13;;
13731;SDS011;6937;56.096;12.664;2022-11-25T00:38:59;55.40;;;29.60;;
13731;SDS011;6937;56.096;12.664;2022-11-25T00:41:26;54.33;;;29.42;;
13731;SDS011;6937;56.096;12.664;2022-11-25T00:44:12;67.90;;;31.58;;
13731;SDS011;6937;56.096;12.664;2022-11-25T00:46:59;59.67;;;30.60;;
13731;SDS011;6937;56.096;12.664;2022-11-25T00:49:24;56.20;;;29.33;;
13731;SDS011;6937;56.096;12.664;2022-11-25T00:51:51;57.50;;;30.10;;
13731;SDS011;6937;56.096;12.664;2022-11-25T00:54:16;61.08;;;31.48;;
13731;SDS011;6937;56.096;12.664;2022-11-25T00:56:42;58.20;;;30.55;;
13731;SDS011;6937;56.096;12.664;2022-11-25T00:59:07;60.63;;;29.90;;
13731;SDS011;6937;56.096;12.664;2022-11-25T01:01:33;55.25;;;28.67;;
13731;SDS011;6937;56.096;12.664;2022-11-25T01:03:59;64.07;;;32.00;;
13731;SDS011;6937;56.096;12.664;2022-11-25T01:06:24;63.47;;;31.15;;
13731;SDS011;6937;56.096;12.664;2022-11-25T01:08:50;58.85;;;30.50;;
13731;SDS011;6937;56.096;12.664;2022-11-25T01:11:17;62.33;;;30.75;;
13731;SDS011;6937;56.096;12.664;2022-11-25T01:13:44;63.60;;;32.85;;
13731;SDS011;6937;56.096;12.664;2022-11-25T01:16:11;58.55;;;31.65;;
13731;SDS011;6937;56.096;12.664;2022-11-25T01:18:39;59.70;;;31.58;;
13731;SDS011;6937;56.096;12.664;2022-11-25T01:23:38;60.88;;;30.95;;
13731;SDS011;6937;56.096;12.664;2022-11-25T01:26:06;58.25;;;31.25;;
13731;SDS011;6937;56.096;12.664;2022-11-25T01:28:33;67.53;;;31.02;;
13731;SDS011;6937;56.096;12.664;2022-11-25T01:31:02;64.10;;;32.80;;
13731;SDS011;6937;56.096;12.664;2022-11-25T01:33:30;60.97;;;32.78;;
13731;SDS011;6937;56.096;12.664;2022-11-25T01:35:59;67.80;;;33.67;;
13731;SDS011;6937;56.096;12.664;2022-11-25T01:38:29;68.82;;;35.20;;
13731;SDS011;6937;56.096;12.664;2022-11-25T01:40:55;63.55;;;34.15;;
13731;SDS011;6937;56.096;12.664;2022-11-25T01:43:20;64.55;;;34.17;;
13731;SDS011;6937;56.096;12.664;2022-11-25T01:45:46;66.80;;;33.33;;
13731;SDS011;6937;56.096;12.664;2022-11-25T01:48:13;61.05;;;29.95;;
13731;SDS011;6937;56.096;12.664;2022-11-25T01:50:44;68.93;;;33.88;;
13731;SDS011;6937;56.096;12.664;2022-11-25T01:53:12;67.10;;;32.30;;
13731;SDS011;6937;56.096;12.664;2022-11-25T01:55:40;68.55;;;33.28;;
13731;SDS011;6937;56.096;12.664;2022-11-25T01:58:13;74.57;;;35.65;;
13731;SDS011;6937;56.096;12.664;2022-11-25T02:00:41;67.13;;;35.10;;
13731;SDS011;6937;56.096;12.664;2022-11-25T02:03:15;65.47;;;34.28;;
13731;SDS011;6937;56.096;12.664;2022-11-25T02:08:47;70.03;;;36.25;;
13731;SDS011;6937;56.096;12.664;2022-11-25T02:11:15;65.72;;;34.50;;
13731;SDS011;6937;56.096;12.664;2022-11-25T02:13:42;69.03;;;33.72;;
13731;SDS011;6937;56.096;12.664;2022-11-25T02:16:10;71.93;;;32.58;;
13731;SDS011;6937;56.096;12.664;2022-11-25T02:18:35;66.00;;;32.08;;
13731;SDS011;6937;56.096;12.664;2022-11-25T02:21:01;69.32;;;37.15;;
13731;SDS011;6937;56.096;12.664;2022-11-25T02:23:29;70.30;;;35.58;;
13731;SDS011;6937;56.096;12.664;2022-11-25T02:26:03;74.45;;;33.33;;
13731;SDS011;6937;56.096;12.664;2022-11-25T02:28:30;76.65;;;37.05;;
13731;SDS011;6937;56.096;12.664;2022-11-25T02:30:56;69.65;;;33.33;;
13731;SDS011;6937;56.096;12.664;2022-11-25T02:33:22;73.00;;;34.58;;
13731;SDS011;6937;56.096;12.664;2022-11-25T02:35:49;70.57;;;37.28;;
13731;SDS011;6937;56.096;12.664;2022-11-25T02:38:29;75.30;;;38.25;;
13731;SDS011;6937;56.096;12.664;2022-11-25T02:41:02;68.95;;;36.22;;
13731;SDS011;6937;56.096;12.664;2022-11-25T02:43:34;73.15;;;37.33;;
13731;SDS011;6937;56.096;12.664;2022-11-25T02:46:01;66.63;;;33.83;;
13731;SDS011;6937;56.096;12.664;2022-11-25T02:48:36;66.32;;;35.50;;
13731;SDS011;6937;56.096;12.664;2022-11-25T02:51:03;58.80;;;30.77;;
13731;SDS011;6937;56.096;12.664;2022-11-25T02:53:31;60.42;;;33.90;;
13731;SDS011;6937;56.096;12.664;2022-11-25T02:55:57;73.05;;;34.10;;
13731;SDS011;6937;56.096;12.664;2022-11-25T02:58:22;65.85;;;35.30;;
13731;SDS011;6937;56.096;12.664;2022-11-25T03:00:47;58.25;;;34.05;;
13731;SDS011;6937;56.096;12.664;2022-11-25T03:03:13;65.72;;;33.67;;
13731;SDS011;6937;56.096;12.664;2022-11-25T03:05:39;57.03;;;31.30;;
13731;SDS011;6937;56.096;12.664;2022-11-25T03:08:04;63.42;;;32.97;;
13731;SDS011;6937;56.096;12.664;2022-11-25T03:10:30;55.95;;;31.58;;
13731;SDS011;6937;56.096;12.664;2022-11-25T03:12:56;55.15;;;30.08;;
13731;SDS011;6937;56.096;12.664;2022-11-25T03:15:21;58.55;;;31.02;;
13731;SDS011;6937;56.096;12.664;2022-11-25T03:17:47;58.78;;;33.75;;
13731;SDS011;6937;56.096;12.664;2022-11-25T03:20:12;57.00;;;30.08;;
13731;SDS011;6937;56.096;12.664;2022-11-25T03:22:39;61.03;;;30.63;;
13731;SDS011;6937;56.096;12.664;2022-11-25T03:25:05;54.22;;;30.67;;
13731;SDS011;6937;56.096;12.664;2022-11-25T03:27:32;52.47;;;29.75;;
13731;SDS011;6937;56.096;12.664;2022-11-25T03:29:58;59.47;;;31.25;;
13731;SDS011;6937;56.096;12.664;2022-11-25T03:32:24;60.90;;;30.27;;
13731;SDS011;6937;56.096;12.664;2022-11-25T03:34:49;61.22;;;29.70;;
13731;SDS011;6937;56.096;12.664;2022-11-25T03:37:14;56.80;;;29.55;;
13731;SDS011;6937;56.096;12.664;2022-11-25T03:39:40;59.47;;;30.75;;
13731;SDS011;6937;56.096;12.664;2022-11-25T03:42:05;56.75;;;33.03;;
13731;SDS011;6937;56.096;12.664;2022-11-25T03:44:31;52.80;;;29.88;;
13731;SDS011;6937;56.096;12.664;2022-11-25T03:46:56;57.97;;;31.98;;
13731;SDS011;6937;56.096;12.664;2022-11-25T03:49:21;57.92;;;30.10;;
13731;SDS011;6937;56.096;12.664;2022-11-25T03:51:47;56.08;;;31.77;;
13731;SDS011;6937;56.096;12.664;2022-11-25T03:54:13;54.95;;;28.73;;
13731;SDS011;6937;56.096;12.664;2022-11-25T03:56:38;54.72;;;31.98;;
13731;SDS011;6937;56.096;12.664;2022-11-25T03:59:04;55.63;;;31.45;;
13731;SDS011;6937;56.096;12.664;2022-11-25T04:01:29;50.67;;;30.60;;
13731;SDS011;6937;56.096;12.664;2022-11-25T04:03:54;51.17;;;31.30;;
13731;SDS011;6937;56.096;12.664;2022-11-25T04:06:19;59.30;;;30.75;;
13731;SDS011;6937;56.096;12.664;2022-11-25T04:08:47;51.90;;;28.70;;
13731;SDS011;6937;56.096;12.664;2022-11-25T04:11:13;58.35;;;32.25;;
13731;SDS011;6937;56.096;12.664;2022-11-25T04:13:38;51.58;;;28.05;;
13731;SDS011;6937;56.096;12.664;2022-11-25T04:16:04;57.67;;;30.42;;
13731;SDS011;6937;56.096;12.664;2022-11-25T04:18:29;53.03;;;29.73;;
13731;SDS011;6937;56.096;12.664;2022-11-25T04:20:55;49.60;;;26.90;;
13731;SDS011;6937;56.096;12.664;2022-11-25T04:23:20;53.40;;;29.02;;
13731;SDS011;6937;56.096;12.664;2022-11-25T04:25:48;48.80;;;26.80;;
13731;SDS011;6937;56.096;12.664;2022-11-25T04:28:14;48.58;;;27.73;;
13731;SDS011;6937;56.096;12.664;2022-11-25T04:30:40;56.05;;;28.85;;
13731;SDS011;6937;56.096;12.664;2022-11-25T04:33:06;53.92;;;27.58;;
13731;SDS011;6937;56.096;12.664;2022-11-25T04:35:31;55.90;;;30.42;;
13731;SDS011;6937;56.096;12.664;2022-11-25T04:37:56;54.83;;;26.45;;
13731;SDS011;6937;56.096;12.664;2022-11-25T04:40:22;47.60;;;27.27;;
13731;SDS011;6937;56.096;12.664;2022-11-25T04:42:47;52.95;;;30.27;;
13731;SDS011;6937;56.096;12.664;2022-11-25T04:45:15;51.75;;;29.35;;
13731;SDS011;6937;56.096;12.664;2022-11-25T04:47:43;49.75;;;28.75;;
13731;SDS011;6937;56.096;12.664;2022-11-25T04:50:12;49.17;;;27.52;;
13731;SDS011;6937;56.096;12.664;2022-11-25T04:52:39;44.17;;;26.65;;
13731;SDS011;6937;56.096;12.664;2022-11-25T04:55:04;48.67;;;28.08;;
13731;SDS011;6937;56.096;12.664;2022-11-25T04:57:30;49.50;;;26.75;;
13731;SDS011;6937;56.096;12.664;2022-11-25T04:59:55;46.35;;;28.27;;
13731;SDS011;6937;56.096;12.664;2022-11-25T05:02:22;51.53;;;28.65;;
13731;SDS011;6937;56.096;12.664;2022-11-25T05:04:50;44.90;;;27.77;;
13731;SDS011;6937;56.096;12.664;2022-11-25T05:07:18;51.70;;;30.85;;
13731;SDS011;6937;56.096;12.664;2022-11-25T05:09:45;48.05;;;27.80;;
13731;SDS011;6937;56.096;12.664;2022-11-25T05:12:13;48.28;;;27.30;;
13731;SDS011;6937;56.096;12.664;2022-11-25T05:14:43;49.47;;;30.83;;
13731;SDS011;6937;56.096;12.664;2022-11-25T05:17:11;50.20;;;31.13;;
13731;SDS011;6937;56.096;12.664;2022-11-25T05:19:39;54.85;;;29.30;;
13731;SDS011;6937;56.096;12.664;2022-11-25T05:22:04;54.38;;;29.98;;
13731;SDS011;6937;56.096;12.664;2022-11-25T05:24:30;52.35;;;31.27;;
13731;SDS011;6937;56.096;12.664;2022-11-25T05:26:55;52.15;;;31.63;;
13731;SDS011;6937;56.096;12.664;2022-11-25T05:29:20;50.95;;;29.70;;
13731;SDS011;6937;56.096;12.664;2022-11-25T05:31:46;51.33;;;30.73;;
13731;SDS011;6937;56.096;12.664;2022-11-25T05:34:11;53.97;;;29.67;;
13731;SDS011;6937;56.096;12.664;2022-11-25T05:36:36;46.53;;;27.10;;
13731;SDS011;6937;56.096;12.664;2022-11-25T05:39:02;54.90;;;30.67;;
13731;SDS011;6937;56.096;12.664;2022-11-25T05:41:28;53.15;;;31.77;;
13731;SDS011;6937;56.096;12.664;2022-11-25T05:43:53;51.83;;;29.88;;
13731;SDS011;6937;56.096;12.664;2022-11-25T05:46:19;47.88;;;28.30;;
13731;SDS011;6937;56.096;12.664;2022-11-25T05:48:44;48.80;;;27.92;;
13731;SDS011;6937;56.096;12.664;2022-11-25T05:51:10;51.65;;;29.10;;
13731;SDS011;6937;56.096;12.664;2022-11-25T05:53:35;46.55;;;28.88;;
13731;SDS011;6937;56.096;12.664;2022-11-25T05:56:03;45.55;;;29.08;;
13731;SDS011;6937;56.096;12.664;2022-11-25T05:58:30;42.67;;;27.60;;
13731;SDS011;6937;56.096;12.664;2022-11-25T06:00:56;45.38;;;25.00;;
13731;SDS011;6937;56.096;12.664;2022-11-25T06:03:22;41.78;;;25.15;;
13731;SDS011;6937;56.096;12.664;2022-11-25T06:05:50;43.08;;;25.70;;
13731;SDS011;6937;56.096;12.664;2022-11-25T06:08:15;43.67;;;25.77;;
13731;SDS011;6937;56.096;12.664;2022-11-25T06:10:40;42.25;;;25.95;;
13731;SDS011;6937;56.096;12.664;2022-11-25T06:13:06;46.85;;;27.38;;
13731;SDS011;6937;56.096;12.664;2022-11-25T06:15:33;45.17;;;27.30;;
13731;SDS011;6937;56.096;12.664;2022-11-25T06:17:58;48.75;;;27.40;;
13731;SDS011;6937;56.096;12.664;2022-11-25T06:20:24;44.60;;;27.98;;
13731;SDS011;6937;56.096;12.664;2022-11-25T06:22:49;46.00;;;26.73;;
13731;SDS011;6937;56.096;12.664;2022-11-25T06:25:14;44.95;;;27.08;;
13731;SDS011;6937;56.096;12.664;2022-11-25T06:27:40;47.80;;;28.88;;
13731;SDS011;6937;56.096;12.664;2022-11-25T06:30:05;44.72;;;29.55;;
13731;SDS011;6937;56.096;12.664;2022-11-25T06:32:31;51.03;;;30.15;;
13731;SDS011;6937;56.096;12.664;2022-11-25T06:34:57;50.92;;;28.70;;
13731;SDS011;6937;56.096;12.664;2022-11-25T06:37:22;50.30;;;28.15;;
13731;SDS011;6937;56.096;12.664;2022-11-25T06:39:47;46.80;;;28.48;;
13731;SDS011;6937;56.096;12.664;2022-11-25T06:42:13;49.55;;;27.13;;
13731;SDS011;6937;56.096;12.664;2022-11-25T06:44:38;49.45;;;28.30;;
13731;SDS011;6937;56.096;12.664;2022-11-25T06:47:03;45.38;;;29.70;;
13731;SDS011;6937;56.096;12.664;2022-11-25T06:49:29;46.15;;;26.52;;
13731;SDS011;6937;56.096;12.664;2022-11-25T06:51:54;42.35;;;28.35;;
13731;SDS011;6937;56.096;12.664;2022-11-25T06:54:19;43.90;;;28.80;;
13731;SDS011;6937;56.096;12.664;2022-11-25T06:56:45;43.97;;;26.83;;
13731;SDS011;6937;56.096;12.664;2022-11-25T06:59:15;44.13;;;26.40;;
13731;SDS011;6937;56.096;12.664;2022-11-25T07:01:42;43.00;;;26.60;;
13731;SDS011;6937;56.096;12.664;2022-11-25T07:04:07;44.22;;;26.52;;
13731;SDS011;6937;56.096;12.664;2022-11-25T07:06:33;37.83;;;23.08;;
13731;SDS011;6937;56.096;12.664;2022-11-25T07:08:58;39.08;;;25.55;;
13731;SDS011;6937;56.096;12.664;2022-11-25T07:11:25;38.22;;;25.50;;
13731;SDS011;6937;56.096;12.664;2022-11-25T07:13:59;40.47;;;24.60;;
13731;SDS011;6937;56.096;12.664;2022-11-25T07:16:27;35.85;;;22.17;;
13731;SDS011;6937;56.096;12.664;2022-11-25T07:18:53;35.67;;;24.33;;
13731;SDS011;6937;56.096;12.664;2022-11-25T07:21:22;34.42;;;23.10;;
13731;SDS011;6937;56.096;12.664;2022-11-25T07:23:49;39.25;;;24.15;;
13731;SDS011;6937;56.096;12.664;2022-11-25T07:26:16;34.55;;;22.58;;
13731;SDS011;6937;56.096;12.664;2022-11-25T07:28:45;35.38;;;22.77;;
13731;SDS011;6937;56.096;12.664;2022-11-25T07:33:49;31.48;;;22.27;;
13731;SDS011;6937;56.096;12.664;2022-11-25T07:36:15;29.17;;;20.58;;
13731;SDS011;6937;56.096;12.664;2022-11-25T07:38:41;29.50;;;21.45;;
13731;SDS011;6937;56.096;12.664;2022-11-25T07:41:14;25.13;;;18.95;;
13731;SDS011;6937;56.096;12.664;2022-11-25T07:43:45;26.60;;;20.15;;
13731;SDS011;6937;56.096;12.664;2022-11-25T07:46:13;23.85;;;16.92;;
13731;SDS011;6937;56.096;12.664;2022-11-25T07:48:45;24.70;;;17.23;;
13731;SDS011;6937;56.096;12.664;2022-11-25T07:51:15;22.38;;;17.10;;
13731;SDS011;6937;56.096;12.664;2022-11-25T07:53:43;20.55;;;15.80;;
13731;SDS011;6937;56.096;12.664;2022-11-25T07:56:08;20.05;;;15.98;;
13731;SDS011;6937;56.096;12.664;2022-11-25T07:58:34;22.58;;;16.02;;
13731;SDS011;6937;56.096;12.664;2022-11-25T08:01:06;21.13;;;16.00;;
13731;SDS011;6937;56.096;12.664;2022-11-25T08:03:32;20.80;;;17.38;;
13731;SDS011;6937;56.096;12.664;2022-11-25T08:06:03;23.25;;;15.18;;
13731;SDS011;6937;56.096;12.664;2022-11-25T08:08:30;20.38;;;15.63;;
13731;SDS011;6937;56.096;12.664;2022-11-25T08:10:55;20.65;;;16.13;;
13731;SDS011;6937;56.096;12.664;2022-11-25T08:13:21;20.02;;;14.43;;
13731;SDS011;6937;56.096;12.664;2022-11-25T08:15:47;22.92;;;15.25;;
13731;SDS011;6937;56.096;12.664;2022-11-25T08:18:12;19.75;;;15.48;;
13731;SDS011;6937;56.096;12.664;2022-11-25T08:20:37;19.23;;;14.52;;
13731;SDS011;6937;56.096;12.664;2022-11-25T08:23:03;17.65;;;14.05;;
13731;SDS011;6937;56.096;12.664;2022-11-25T08:25:28;19.40;;;14.60;;
13731;SDS011;6937;56.096;12.664;2022-11-25T08:27:55;20.55;;;14.50;;
13731;SDS011;6937;56.096;12.664;2022-11-25T08:30:23;20.50;;;15.35;;
13731;SDS011;6937;56.096;12.664;2022-11-25T08:32:50;17.67;;;15.13;;
13731;SDS011;6937;56.096;12.664;2022-11-25T08:35:16;19.63;;;16.23;;
13731;SDS011;6937;56.096;12.664;2022-11-25T08:37:42;18.80;;;14.48;;
13731;SDS011;6937;56.096;12.664;2022-11-25T08:40:08;18.17;;;14.63;;
13731;SDS011;6937;56.096;12.664;2022-11-25T08:42:34;17.50;;;13.85;;
13731;SDS011;6937;56.096;12.664;2022-11-25T08:45:00;19.30;;;15.82;;
13731;SDS011;6937;56.096;12.664;2022-11-25T08:47:25;18.20;;;14.20;;
13731;SDS011;6937;56.096;12.664;2022-11-25T08:49:51;16.58;;;13.02;;
13731;SDS011;6937;56.096;12.664;2022-11-25T08:52:18;16.95;;;15.15;;
13731;SDS011;6937;56.096;12.664;2022-11-25T08:54:44;15.50;;;13.80;;
13731;SDS011;6937;56.096;12.664;2022-11-25T08:57:09;16.15;;;13.75;;
13731;SDS011;6937;56.096;12.664;2022-11-25T08:59:35;15.52;;;13.75;;
13731;SDS011;6937;56.096;12.664;2022-11-25T09:02:00;15.23;;;12.48;;
13731;SDS011;6937;56.096;12.664;2022-11-25T09:04:26;15.95;;;12.00;;
13731;SDS011;6937;56.096;12.664;2022-11-25T09:06:51;15.35;;;12.52;;
13731;SDS011;6937;56.096;12.664;2022-11-25T09:09:17;13.40;;;11.23;;
13731;SDS011;6937;56.096;12.664;2022-11-25T09:11:42;14.00;;;10.23;;
13731;SDS011;6937;56.096;12.664;2022-11-25T09:14:07;11.48;;;8.82;;
13731;SDS011;6937;56.096;12.664;2022-11-25T09:16:33;11.90;;;9.07;;
13731;SDS011;6937;56.096;12.664;2022-11-25T09:18:59;11.27;;;9.15;;
13731;SDS011;6937;56.096;12.664;2022-11-25T09:21:25;10.77;;;9.32;;
13731;SDS011;6937;56.096;12.664;2022-11-25T09:23:50;10.77;;;9.13;;
13731;SDS011;6937;56.096;12.664;2022-11-25T09:26:24;11.93;;;8.82;;
13731;SDS011;6937;56.096;12.664;2022-11-25T09:28:52;10.50;;;8.23;;
13731;SDS011;6937;56.096;12.664;2022-11-25T09:31:18;10.45;;;8.30;;
13731;SDS011;6937;56.096;12.664;2022-11-25T09:33:44;10.70;;;8.18;;
13731;SDS011;6937;56.096;12.664;2022-11-25T09:36:11;10.82;;;7.93;;
13731;SDS011;6937;56.096;12.664;2022-11-25T09:38:37;9.45;;;7.15;;
13731;SDS011;6937;56.096;12.664;2022-11-25T09:41:13;8.90;;;7.13;;
13731;SDS011;6937;56.096;12.664;2022-11-25T09:44:12;10.25;;;7.38;;
13731;SDS011;6937;56.096;12.664;2022-11-25T09:47:19;9.23;;;6.70;;
13731;SDS011;6937;56.096;12.664;2022-11-25T09:52:51;9.18;;;6.50;;
13731;SDS011;6937;56.096;12.664;2022-11-25T09:55:29;8.90;;;6.50;;
13731;SDS011;6937;56.096;12.664;2022-11-25T10:00:46;10.80;;;7.15;;
13731;SDS011;6937;56.096;12.664;2022-11-25T10:06:13;8.68;;;6.68;;
13731;SDS011;6937;56.096;12.664;2022-11-25T10:08:42;10.23;;;7.13;;
13731;SDS011;6937;56.096;12.664;2022-11-25T10:16:24;11.80;;;8.45;;
13731;SDS011;6937;56.096;12.664;2022-11-25T10:18:58;11.30;;;6.97;;
13731;SDS011;6937;56.096;12.664;2022-11-25T10:21:25;9.13;;;6.78;;
13731;SDS011;6937;56.096;12.664;2022-11-25T10:23:52;9.80;;;7.25;;
13731;SDS011;6937;56.096;12.664;2022-11-25T10:26:20;11.00;;;7.35;;
13731;SDS011;6937;56.096;12.664;2022-11-25T10:28:53;9.70;;;6.47;;
13731;SDS011;6937;56.096;12.664;2022-11-25T10:31:23;9.13;;;7.40;;
13731;SDS011;6937;56.096;12.664;2022-11-25T10:33:55;10.68;;;7.50;;
13731;SDS011;6937;56.096;12.664;2022-11-25T10:36:28;9.85;;;7.43;;
13731;SDS011;6937;56.096;12.664;2022-11-25T10:44:27;10.45;;;7.75;;
13731;SDS011;6937;56.096;12.664;2022-11-25T10:52:26;11.05;;;8.30;;
13731;SDS011;6937;56.096;12.664;2022-11-25T10:54:56;12.60;;;8.80;;
13731;SDS011;6937;56.096;12.664;2022-11-25T10:57:26;11.77;;;8.05;;
13731;SDS011;6937;56.096;12.664;2022-11-25T10:59:57;12.88;;;9.35;;
13731;SDS011;6937;56.096;12.664;2022-11-25T11:02:36;11.57;;;8.18;;
13731;SDS011;6937;56.096;12.664;2022-11-25T11:07:35;12.70;;;8.57;;
13731;SDS011;6937;56.096;12.664;2022-11-25T11:10:26;16.05;;;10.73;;
13731;SDS011;6937;56.096;12.664;2022-11-25T11:12:58;12.73;;;9.35;;
13731;SDS011;6937;56.096;12.664;2022-11-25T11:15:44;13.82;;;9.52;;
13731;SDS011;6937;56.096;12.664;2022-11-25T11:18:20;17.08;;;11.15;;
13731;SDS011;6937;56.096;12.664;2022-11-25T11:20:56;16.10;;;11.13;;
13731;SDS011;6937;56.096;12.664;2022-11-25T11:23:24;15.98;;;11.98;;
13731;SDS011;6937;56.096;12.664;2022-11-25T11:25:58;17.77;;;11.77;;
13731;SDS011;6937;56.096;12.664;2022-11-25T11:30:59;16.88;;;11.73;;
13731;SDS011;6937;56.096;12.664;2022-11-25T11:33:49;15.95;;;11.48;;
13731;SDS011;6937;56.096;12.664;2022-11-25T11:39:20;21.33;;;13.20;;
13731;SDS011;6937;56.096;12.664;2022-11-25T11:41:59;18.98;;;12.48;;
13731;SDS011;6937;56.096;12.664;2022-11-25T11:47:27;19.27;;;13.18;;
13731;SDS011;6937;56.096;12.664;2022-11-25T12:07:43;18.77;;;12.70;;
13731;SDS011;6937;56.096;12.664;2022-11-25T12:12:51;18.60;;;13.83;;
13731;SDS011;6937;56.096;12.664;2022-11-25T12:15:23;18.42;;;13.32;;
13731;SDS011;6937;56.096;12.664;2022-11-25T12:18:01;19.27;;;13.07;;
13731;SDS011;6937;56.096;12.664;2022-11-25T12:20:46;17.10;;;11.93;;
13731;SDS011;6937;56.096;12.664;2022-11-25T12:23:23;16.70;;;12.32;;
13731;SDS011;6937;56.096;12.664;2022-11-25T12:25:55;14.57;;;11.10;;
13731;SDS011;6937;56.096;12.664;2022-11-25T12:28:31;16.20;;;11.50;;
13731;SDS011;6937;56.096;12.664;2022-11-25T12:31:15;16.13;;;11.45;;
13731;SDS011;6937;56.096;12.664;2022-11-25T12:33:52;18.27;;;11.63;;
13731;SDS011;6937;56.096;12.664;2022-11-25T12:36:35;15.00;;;10.23;;
13731;SDS011;6937;56.096;12.664;2022-11-25T12:41:46;17.88;;;11.40;;
13731;SDS011;6937;56.096;12.664;2022-11-25T12:44:28;15.95;;;10.23;;
13731;SDS011;6937;56.096;12.664;2022-11-25T12:46:59;17.85;;;10.98;;
13731;SDS011;6937;56.096;12.664;2022-11-25T12:49:26;16.05;;;10.77;;
13731;SDS011;6937;56.096;12.664;2022-11-25T13:04:00;16.73;;;11.60;;
13731;SDS011;6937;56.096;12.664;2022-11-25T13:09:44;13.82;;;10.90;;
13731;SDS011;6937;56.096;12.664;2022-11-25T13:17:44;15.13;;;11.32;;
13731;SDS011;6937;56.096;12.664;2022-11-25T13:23:27;13.93;;;10.52;;
13731;SDS011;6937;56.096;12.664;2022-11-25T13:25:49;15.60;;;10.23;;
13731;SDS011;6937;56.096;12.664;2022-11-25T13:36:16;14.50;;;10.60;;
13731;SDS011;6937;56.096;12.664;2022-11-25T13:43:56;17.25;;;11.43;;
13731;SDS011;6937;56.096;12.664;2022-11-25T13:49:02;12.73;;;8.82;;
13731;SDS011;6937;56.096;12.664;2022-11-25T13:51:31;14.35;;;10.32;;
13731;SDS011;6937;56.096;12.664;2022-11-25T13:53:57;15.20;;;10.85;;
13731;SDS011;6937;56.096;12.664;2022-11-25T13:56:26;16.75;;;10.10;;
13731;SDS011;6937;56.096;12.664;2022-11-25T13:59:17;15.15;;;10.50;;
13731;SDS011;6937;56.096;12.664;2022-11-25T14:04:09;13.82;;;10.45;;
13731;SDS011;6937;56.096;12.664;2022-11-25T14:11:57;13.80;;;8.90;;
13731;SDS011;6937;56.096;12.664;2022-11-25T14:17:31;11.88;;;8.35;;
13731;SDS011;6937;56.096;12.664;2022-11-25T14:26:03;10.45;;;6.82;;
13731;SDS011;6937;56.096;12.664;2022-11-25T14:28:46;11.45;;;7.57;;
13731;SDS011;6937;56.096;12.664;2022-11-25T14:31:21;8.93;;;7.00;;
13731;SDS011;6937;56.096;12.664;2022-11-25T14:33:56;10.25;;;7.18;;
13731;SDS011;6937;56.096;12.664;2022-11-25T14:37:07;8.07;;;6.72;;
13731;SDS011;6937;56.096;12.664;2022-11-25T14:39:29;9.40;;;6.90;;
13731;SDS011;6937;56.096;12.664;2022-11-25T14:42:09;8.18;;;5.97;;
13731;SDS011;6937;56.096;12.664;2022-11-25T14:44:48;10.85;;;6.72;;
13731;SDS011;6937;56.096;12.664;2022-11-25T14:47:19;11.43;;;7.40;;
13731;SDS011;6937;56.096;12.664;2022-11-25T14:49:50;8.98;;;6.93;;
13731;SDS011;6937;56.096;12.664;2022-11-25T14:52:21;8.48;;;6.85;;
13731;SDS011;6937;56.096;12.664;2022-11-25T14:54:48;8.77;;;7.25;;
13731;SDS011;6937;56.096;12.664;2022-11-25T14:57:20;9.35;;;7.28;;
13731;SDS011;6937;56.096;12.664;2022-11-25T15:00:08;10.55;;;7.32;;
13731;SDS011;6937;56.096;12.664;2022-11-25T15:03:44;8.77;;;7.40;;
13731;SDS011;6937;56.096;12.664;2022-11-25T15:05:42;9.75;;;7.63;;
13731;SDS011;6937;56.096;12.664;2022-11-25T15:08:14;12.43;;;7.43;;
13731;SDS011;6937;56.096;12.664;2022-11-25T15:11:00;10.95;;;8.55;;
13731;SDS011;6937;56.096;12.664;2022-11-25T15:13:29;10.65;;;7.45;;
13731;SDS011;6937;56.096;12.664;2022-11-25T15:16:05;9.73;;;7.82;;
13731;SDS011;6937;56.096;12.664;2022-11-25T15:18:35;10.43;;;7.45;;
13731;SDS011;6937;56.096;12.664;2022-11-25T15:21:01;7.90;;;7.10;;
13731;SDS011;6937;56.096;12.664;2022-11-25T15:23:32;10.38;;;7.85;;
13731;SDS011;6937;56.096;12.664;2022-11-25T15:26:01;10.27;;;7.20;;
13731;SDS011;6937;56.096;12.664;2022-11-25T15:28:37;10.27;;;7.63;;
13731;SDS011;6937;56.096;12.664;2022-11-25T15:31:07;11.02;;;8.15;;
13731;SDS011;6937;56.096;12.664;2022-11-25T15:33:34;11.00;;;8.80;;
13731;SDS011;6937;56.096;12.664;2022-11-25T15:36:01;9.75;;;8.02;;
13731;SDS011;6937;56.096;12.664;2022-11-25T15:38:43;10.93;;;8.85;;
13731;SDS011;6937;56.096;12.664;2022-11-25T15:43:56;13.10;;;9.00;;
13731;SDS011;6937;56.096;12.664;2022-11-25T15:46:23;12.70;;;9.70;;
13731;SDS011;6937;56.096;12.664;2022-11-25T15:48:50;14.43;;;9.52;;
13731;SDS011;6937;56.096;12.664;2022-11-25T15:54:06;12.10;;;8.98;;
13731;SDS011;6937;56.096;12.664;2022-11-25T15:56:53;12.70;;;8.57;;
13731;SDS011;6937;56.096;12.664;2022-11-25T16:05:11;12.60;;;8.63;;
13731;SDS011;6937;56.096;12.664;2022-11-25T16:10:22;11.45;;;8.15;;
13731;SDS011;6937;56.096;12.664;2022-11-25T16:16:18;11.23;;;8.35;;
13731;SDS011;6937;56.096;12.664;2022-11-25T16:26:53;14.48;;;9.20;;
13731;SDS011;6937;56.096;12.664;2022-11-25T16:29:31;13.82;;;8.63;;
13731;SDS011;6937;56.096;12.664;2022-11-25T16:31:57;12.38;;;9.23;;
13731;SDS011;6937;56.096;12.664;2022-11-25T16:34:23;11.45;;;8.77;;
13731;SDS011;6937;56.096;12.664;2022-11-25T16:36:50;13.65;;;8.82;;
13731;SDS011;6937;56.096;12.664;2022-11-25T16:39:16;10.93;;;8.25;;
13731;SDS011;6937;56.096;12.664;2022-11-25T16:41:41;12.70;;;8.23;;
13731;SDS011;6937;56.096;12.664;2022-11-25T16:44:17;14.18;;;9.60;;
13731;SDS011;6937;56.096;12.664;2022-11-25T16:46:45;9.32;;;7.60;;
13731;SDS011;6937;56.096;12.664;2022-11-25T16:49:14;13.07;;;8.80;;
13731;SDS011;6937;56.096;12.664;2022-11-25T16:51:40;12.15;;;9.07;;
13731;SDS011;6937;56.096;12.664;2022-11-25T16:54:06;10.95;;;8.07;;
13731;SDS011;6937;56.096;12.664;2022-11-25T16:56:32;13.70;;;8.90;;
13731;SDS011;6937;56.096;12.664;2022-11-25T16:58:59;11.13;;;8.00;;
13731;SDS011;6937;56.096;12.664;2022-11-25T17:01:26;13.18;;;8.00;;
13731;SDS011;6937;56.096;12.664;2022-11-25T17:03:53;11.90;;;8.80;;